Time;durP1;ratioP1;P1;durP2;ratioP2;P2;SDS_P1;SDS_P2;PMS_P1;PMS_P2;Temp;Humidity;BMP_temperature;BMP_pressure;BME280_temperature;BME280_humidity;BME280_pressure;Samples;Min_cycle;Max_cycle;Signal;HPM_P1;HPM_P2
2021/08/07 00:00:14;;;;;;;;;;;17.10;99.90;;;;;;1887125;74;20528;-74
2021/08/07 00:02:41;;;;;;;;;;;17.10;99.90;;;;;;1901324;75;20513;-74
2021/08/07 00:05:08;;;;;;;;;;;17.10;99.90;;;;;;1914133;73;20173;-74
2021/08/07 00:07:35;;;;;;;;;;;17.10;99.90;;;;;;1899052;75;20181;-74
2021/08/07 00:10:03;;;;;;;;;;;17.10;99.90;;;;;;1905910;74;20183;-74
2021/08/07 00:12:49;;;;;;;;;;;17.10;99.90;;;;;;1908611;75;20234;-75
2021/08/07 00:15:16;;;;;;;;;;;17.00;99.90;;;;;;1923601;74;20172;-74
2021/08/07 00:17:42;;;;;;;;;;;17.00;99.90;;;;;;1925471;74;20212;-74
2021/08/07 00:20:09;;;;;;;;;;;17.00;99.90;;;;;;1924480;74;20176;-74
2021/08/07 00:22:37;;;;;;;;;;;17.00;99.90;;;;;;1924390;73;20216;-74
2021/08/07 00:25:03;;;;;;;;;;;17.00;99.90;;;;;;1924616;73;20564;-75
2021/08/07 00:27:30;;;;;;;;;;;17.00;99.90;;;;;;1924490;73;20273;-74
2021/08/07 00:29:57;;;;;;;;;;;16.90;99.90;;;;;;1924931;73;20176;-74
2021/08/07 00:32:24;;;;;;;;;;;17.00;99.90;;;;;;1923856;73;20172;-75
2021/08/07 00:34:51;;;;;;;;;;;16.90;99.90;;;;;;1925315;74;20165;-75
2021/08/07 00:37:18;;;;;;;;;;;16.90;99.90;;;;;;1925290;74;20157;-75
2021/08/07 00:39:45;;;;;;;;;;;16.90;99.90;;;;;;1925136;73;20169;-74
2021/08/07 00:42:11;;;;;;;;;;;16.80;99.90;;;;;;1924943;73;20192;-74
2021/08/07 00:44:38;;;;;;;;;;;16.80;99.90;;;;;;1925311;73;20176;-74
2021/08/07 00:47:05;;;;;;;;;;;16.80;99.90;;;;;;1924551;73;20164;-74
2021/08/07 00:49:32;;;;;;;;;;;16.80;99.90;;;;;;1922532;73;20239;-76
2021/08/07 00:51:59;;;;;;;;;;;16.80;99.90;;;;;;1923137;73;20176;-73
2021/08/07 00:54:25;;;;;;;;;;;16.80;99.90;;;;;;1925054;73;20868;-73
2021/08/07 00:56:52;;;;;;;;;;;16.80;99.90;;;;;;1924622;73;20188;-73
2021/08/07 00:59:19;;;;;;;;;;;16.80;99.90;;;;;;1925113;73;20442;-73
2021/08/07 01:01:47;;;;;;;;;;;16.80;99.90;;;;;;1930422;73;20486;-73
2021/08/07 01:04:16;;;;;;;;;;;16.80;99.90;;;;;;1924612;73;20177;-73
2021/08/07 01:06:50;;;;;;;;;;;16.80;99.90;;;;;;1919120;73;20921;-73
2021/08/07 01:09:31;;;;;;;;;;;16.80;99.90;;;;;;1923753;73;20176;-75
2021/08/07 01:12:05;;;;;;;;;;;16.80;99.90;;;;;;1925428;73;20208;-75
2021/08/07 01:14:34;;;;;;;;;;;16.80;99.90;;;;;;1924188;73;20199;-76
2021/08/07 01:17:01;;;;;;;;;;;16.80;99.90;;;;;;1924645;73;20157;-74
2021/08/07 01:19:29;;;;;;;;;;;16.70;99.90;;;;;;1925132;73;20180;-74
2021/08/07 01:22:00;;;;;;;;;;;16.80;99.90;;;;;;1924430;73;20164;-74
2021/08/07 01:24:28;;;;;;;;;;;16.80;99.90;;;;;;1924956;73;20152;-75
2021/08/07 01:27:00;;;;;;;;;;;16.80;99.90;;;;;;1914226;73;20168;-75
2021/08/07 01:29:26;;;;;;;;;;;16.80;99.90;;;;;;1925573;73;20110;-74
2021/08/07 01:31:53;;;;;;;;;;;16.80;99.90;;;;;;1924440;73;20270;-75
2021/08/07 01:34:21;;;;;;;;;;;16.80;99.90;;;;;;1924500;73;20219;-74
2021/08/07 01:36:48;;;;;;;;;;;16.80;99.90;;;;;;1924493;73;20196;-74
2021/08/07 01:39:15;;;;;;;;;;;16.80;99.90;;;;;;1925198;73;20146;-74
2021/08/07 01:41:42;;;;;;;;;;;16.80;99.90;;;;;;1920646;73;20173;-73
2021/08/07 01:44:09;;;;;;;;;;;16.80;99.90;;;;;;1925125;73;20165;-73
2021/08/07 01:46:40;;;;;;;;;;;16.70;99.90;;;;;;1925143;73;20177;-73
2021/08/07 01:49:08;;;;;;;;;;;16.80;99.90;;;;;;1898925;73;20184;-73
2021/08/07 01:51:39;;;;;;;;;;;16.80;99.90;;;;;;1925123;74;20204;-74
2021/08/07 01:54:07;;;;;;;;;;;16.80;99.90;;;;;;1925566;73;20493;-74
2021/08/07 01:56:37;;;;;;;;;;;16.80;99.90;;;;;;1925437;73;20407;-74
2021/08/07 01:59:11;;;;;;;;;;;16.80;99.90;;;;;;1925171;73;20184;-74
2021/08/07 02:01:38;;;;;;;;;;;16.70;99.90;;;;;;1925091;73;20125;-74
2021/08/07 02:04:05;;;;;;;;;;;16.80;99.90;;;;;;1925012;73;20234;-74
2021/08/07 02:06:32;;;;;;;;;;;16.80;99.90;;;;;;1924757;73;20180;-73
2021/08/07 02:08:59;;;;;;;;;;;16.70;99.90;;;;;;1935234;73;20497;-74
2021/08/07 02:11:26;;;;;;;;;;;16.70;99.90;;;;;;1925060;73;20125;-73
2021/08/07 02:13:54;;;;;;;;;;;16.70;99.90;;;;;;1920870;73;20176;-74
2021/08/07 02:16:21;;;;;;;;;;;16.70;99.90;;;;;;1924123;74;20206;-74
2021/08/07 02:18:49;;;;;;;;;;;16.70;99.90;;;;;;1925337;74;20161;-74
2021/08/07 02:21:17;;;;;;;;;;;16.70;99.90;;;;;;1925132;73;20176;-73
2021/08/07 02:23:45;;;;;;;;;;;16.60;99.90;;;;;;1924982;73;20173;-74
2021/08/07 02:26:12;;;;;;;;;;;16.70;99.90;;;;;;1924744;73;20169;-74
2021/08/07 02:28:39;;;;;;;;;;;16.60;99.90;;;;;;1925053;73;20212;-74
2021/08/07 02:31:06;;;;;;;;;;;16.60;99.90;;;;;;1925531;74;20176;-73
2021/08/07 02:33:34;;;;;;;;;;;16.50;99.90;;;;;;1924110;73;20393;-74
2021/08/07 02:36:02;;;;;;;;;;;16.40;99.90;;;;;;1925395;74;20453;-74
2021/08/07 02:38:30;;;;;;;;;;;16.40;99.90;;;;;;1924842;73;20176;-74
2021/08/07 02:40:59;;;;;;;;;;;16.30;99.90;;;;;;1926013;73;20183;-74
2021/08/07 02:43:26;;;;;;;;;;;16.30;99.90;;;;;;1925579;73;20152;-73
2021/08/07 02:45:53;;;;;;;;;;;16.30;99.90;;;;;;1926061;73;20181;-73
2021/08/07 02:48:20;;;;;;;;;;;16.40;99.90;;;;;;1926118;73;20124;-74
2021/08/07 02:50:47;;;;;;;;;;;16.30;99.90;;;;;;1925814;73;20155;-73
2021/08/07 02:53:15;;;;;;;;;;;16.40;99.90;;;;;;1925863;74;20150;-73
2021/08/07 02:55:42;;;;;;;;;;;16.40;99.90;;;;;;1925945;73;20156;-73
2021/08/07 02:58:09;;;;;;;;;;;16.40;99.90;;;;;;1925173;73;20215;-73
2021/08/07 03:00:37;;;;;;;;;;;16.40;99.90;;;;;;1925090;73;20210;-74
2021/08/07 03:03:04;;;;;;;;;;;16.50;99.90;;;;;;1925185;73;20177;-74
2021/08/07 03:05:31;;;;;;;;;;;16.40;99.90;;;;;;1924022;73;20172;-74
2021/08/07 03:07:58;;;;;;;;;;;16.40;99.90;;;;;;1925025;73;20164;-74
2021/08/07 03:10:26;;;;;;;;;;;16.40;99.90;;;;;;1924907;73;20740;-73
2021/08/07 03:12:53;;;;;;;;;;;16.40;99.90;;;;;;1925034;73;20411;-74
2021/08/07 03:15:23;;;;;;;;;;;16.40;99.90;;;;;;1925077;73;20473;-73
2021/08/07 03:17:51;;;;;;;;;;;16.30;99.90;;;;;;1925015;73;20537;-73
2021/08/07 03:20:18;;;;;;;;;;;16.40;99.90;;;;;;1925531;73;20222;-73
2021/08/07 03:22:45;;;;;;;;;;;16.40;99.90;;;;;;1924168;73;20141;-73
2021/08/07 03:25:12;;;;;;;;;;;16.40;99.90;;;;;;1925419;73;20168;-73
2021/08/07 03:27:39;;;;;;;;;;;16.40;99.90;;;;;;1925540;73;20126;-74
2021/08/07 03:30:06;;;;;;;;;;;16.40;99.90;;;;;;1925453;73;20172;-73
2021/08/07 03:32:33;;;;;;;;;;;16.40;99.90;;;;;;1925069;73;20192;-73
2021/08/07 03:35:00;;;;;;;;;;;16.40;99.90;;;;;;1925652;73;20457;-73
2021/08/07 03:37:27;;;;;;;;;;;16.30;99.90;;;;;;1919973;73;20125;-73
2021/08/07 03:39:54;;;;;;;;;;;16.40;99.90;;;;;;1925671;74;20859;-73
2021/08/07 03:42:21;;;;;;;;;;;16.40;99.90;;;;;;1925532;73;20169;-73
2021/08/07 03:44:48;;;;;;;;;;;16.40;99.90;;;;;;1925262;73;20098;-73
2021/08/07 03:47:15;;;;;;;;;;;16.40;99.90;;;;;;1924551;73;20438;-73
2021/08/07 03:49:42;;;;;;;;;;;16.40;99.90;;;;;;1924388;73;20772;-73
2021/08/07 03:52:09;;;;;;;;;;;16.40;99.90;;;;;;1924215;73;20219;-73
2021/08/07 03:54:35;;;;;;;;;;;16.40;99.90;;;;;;1925468;73;20204;-74
2021/08/07 03:57:02;;;;;;;;;;;16.40;99.90;;;;;;1924986;73;20165;-73
2021/08/07 03:59:29;;;;;;;;;;;16.40;99.90;;;;;;1925355;74;20487;-73
2021/08/07 04:01:56;;;;;;;;;;;16.40;99.90;;;;;;1924690;73;20165;-73
2021/08/07 04:04:23;;;;;;;;;;;16.40;99.90;;;;;;1924707;73;20493;-73
2021/08/07 04:06:49;;;;;;;;;;;16.50;99.90;;;;;;1924706;73;20177;-74
2021/08/07 04:09:16;;;;;;;;;;;16.50;99.90;;;;;;1923583;73;20222;-73
2021/08/07 04:11:43;;;;;;;;;;;16.40;99.90;;;;;;1925338;73;20488;-74
2021/08/07 04:14:10;;;;;;;;;;;16.40;99.90;;;;;;1933256;73;20182;-73
2021/08/07 04:16:38;;;;;;;;;;;16.40;99.90;;;;;;1925692;73;20426;-74
2021/08/07 04:19:05;;;;;;;;;;;16.50;99.90;;;;;;1925802;73;20533;-74
2021/08/07 04:21:31;;;;;;;;;;;16.40;99.90;;;;;;1925669;73;20199;-74
2021/08/07 04:23:58;;;;;;;;;;;16.40;99.90;;;;;;1924990;73;20210;-74
2021/08/07 04:26:25;;;;;;;;;;;16.40;99.90;;;;;;1924959;73;20169;-74
2021/08/07 04:28:52;;;;;;;;;;;16.40;99.90;;;;;;1924782;73;20254;-73
2021/08/07 04:31:19;;;;;;;;;;;16.50;99.90;;;;;;1924989;73;20454;-74
2021/08/07 04:33:45;;;;;;;;;;;16.40;99.90;;;;;;1924437;73;20153;-74
2021/08/07 04:36:12;;;;;;;;;;;16.50;99.90;;;;;;1924946;73;20506;-74
2021/08/07 04:38:39;;;;;;;;;;;16.50;99.90;;;;;;1925382;73;20238;-74
2021/08/07 04:41:06;;;;;;;;;;;16.50;99.90;;;;;;1925456;73;20204;-73
2021/08/07 04:43:34;;;;;;;;;;;16.50;99.90;;;;;;1924894;73;20162;-74
2021/08/07 04:46:00;;;;;;;;;;;16.40;99.90;;;;;;1925004;73;20192;-74
2021/08/07 04:48:27;;;;;;;;;;;16.50;99.90;;;;;;1924722;73;20168;-74
2021/08/07 04:50:54;;;;;;;;;;;16.50;99.90;;;;;;1924885;73;20192;-73
2021/08/07 04:53:21;;;;;;;;;;;16.50;99.90;;;;;;1925055;73;20206;-73
2021/08/07 04:55:48;;;;;;;;;;;16.50;99.90;;;;;;1924959;73;20176;-73
2021/08/07 04:58:14;;;;;;;;;;;16.50;99.90;;;;;;1925204;73;20157;-72
2021/08/07 05:00:41;;;;;;;;;;;16.60;99.90;;;;;;1925165;73;20176;-74
2021/08/07 05:03:08;;;;;;;;;;;16.60;99.90;;;;;;1925575;73;20148;-73
2021/08/07 05:05:35;;;;;;;;;;;16.60;99.90;;;;;;1925057;73;20244;-75
2021/08/07 05:08:02;;;;;;;;;;;16.60;99.90;;;;;;1926009;74;20161;-74
2021/08/07 05:10:28;;;;;;;;;;;16.50;99.90;;;;;;1925211;73;20119;-74
2021/08/07 05:12:55;;;;;;;;;;;16.50;99.90;;;;;;1925927;74;20181;-74
2021/08/07 05:15:22;;;;;;;;;;;16.50;99.90;;;;;;1925897;73;20240;-74
2021/08/07 05:17:49;;;;;;;;;;;16.50;99.90;;;;;;1929463;74;20153;-74
2021/08/07 05:20:35;;;;;;;;;;;16.50;99.90;;;;;;1929117;73;20157;-74
2021/08/07 05:23:02;;;;;;;;;;;16.60;99.90;;;;;;1933230;73;20146;-74
2021/08/07 05:25:29;;;;;;;;;;;16.60;99.90;;;;;;1925032;73;20169;-74
2021/08/07 05:27:56;;;;;;;;;;;16.60;99.90;;;;;;1928851;73;20448;-74
2021/08/07 05:30:23;;;;;;;;;;;16.60;99.90;;;;;;1925943;73;20191;-74
2021/08/07 05:32:50;;;;;;;;;;;16.60;99.90;;;;;;1925823;73;20211;-73
2021/08/07 05:35:17;;;;;;;;;;;16.60;99.90;;;;;;1926203;73;20429;-73
2021/08/07 05:37:44;;;;;;;;;;;16.60;99.90;;;;;;1927367;73;20181;-73
2021/08/07 05:40:12;;;;;;;;;;;16.60;99.90;;;;;;1925517;73;20142;-73
2021/08/07 05:42:39;;;;;;;;;;;16.60;99.90;;;;;;1925232;73;20435;-73
2021/08/07 05:45:06;;;;;;;;;;;16.60;99.90;;;;;;1924212;73;20196;-72
2021/08/07 05:47:33;;;;;;;;;;;16.60;99.90;;;;;;1923910;73;20121;-73
2021/08/07 05:50:00;;;;;;;;;;;16.60;99.90;;;;;;1924492;73;20435;-74
2021/08/07 05:52:27;;;;;;;;;;;16.70;99.90;;;;;;1925267;74;20165;-74
2021/08/07 05:54:56;;;;;;;;;;;16.70;99.90;;;;;;1924880;73;20203;-74
2021/08/07 05:57:23;;;;;;;;;;;16.70;99.90;;;;;;1925051;73;20176;-74
2021/08/07 05:59:50;;;;;;;;;;;16.80;99.90;;;;;;1924738;73;20167;-74
2021/08/07 06:02:16;;;;;;;;;;;16.80;99.90;;;;;;1925422;74;20183;-73
2021/08/07 06:04:43;;;;;;;;;;;16.80;99.90;;;;;;1925234;73;20277;-74
2021/08/07 06:07:10;;;;;;;;;;;16.80;99.90;;;;;;1924740;73;20169;-74
2021/08/07 06:09:37;;;;;;;;;;;16.80;99.90;;;;;;1925286;73;20178;-76
2021/08/07 06:12:04;;;;;;;;;;;16.90;99.90;;;;;;1925189;73;20180;-74
2021/08/07 06:14:30;;;;;;;;;;;16.90;99.90;;;;;;1917659;73;20188;-74
2021/08/07 06:16:57;;;;;;;;;;;16.90;99.90;;;;;;1924036;73;20174;-75
2021/08/07 06:19:24;;;;;;;;;;;17.00;99.90;;;;;;1925327;74;20175;-75
2021/08/07 06:21:51;;;;;;;;;;;17.00;99.90;;;;;;1928288;73;20170;-74
2021/08/07 06:24:18;;;;;;;;;;;17.00;99.90;;;;;;1953243;73;20178;-74
2021/08/07 06:26:45;;;;;;;;;;;17.00;99.90;;;;;;1925222;73;20169;-74
2021/08/07 06:29:12;;;;;;;;;;;17.10;99.90;;;;;;1925340;73;20274;-74
2021/08/07 06:31:38;;;;;;;;;;;17.10;99.90;;;;;;1924954;73;20172;-74
2021/08/07 06:34:05;;;;;;;;;;;17.10;99.90;;;;;;1925104;73;20313;-74
2021/08/07 06:36:32;;;;;;;;;;;17.00;99.90;;;;;;1925078;73;20365;-74
2021/08/07 06:38:59;;;;;;;;;;;17.00;99.90;;;;;;1925530;73;20160;-74
2021/08/07 06:41:26;;;;;;;;;;;17.10;99.90;;;;;;1924955;73;20180;-74
2021/08/07 06:43:53;;;;;;;;;;;17.10;99.90;;;;;;1924916;73;20413;-75
2021/08/07 06:46:20;;;;;;;;;;;17.10;99.90;;;;;;1923223;73;20209;-74
2021/08/07 06:48:47;;;;;;;;;;;17.10;99.90;;;;;;1924267;73;20189;-75
2021/08/07 06:51:14;;;;;;;;;;;17.10;99.90;;;;;;1924845;73;20397;-74
2021/08/07 06:53:40;;;;;;;;;;;17.10;99.90;;;;;;1925191;73;20165;-74
2021/08/07 06:56:08;;;;;;;;;;;17.10;99.90;;;;;;1924451;73;20502;-74
2021/08/07 06:58:34;;;;;;;;;;;17.10;99.90;;;;;;1925339;74;20553;-74
2021/08/07 07:01:01;;;;;;;;;;;17.20;99.90;;;;;;1920612;73;20214;-74
2021/08/07 07:03:28;;;;;;;;;;;17.10;99.90;;;;;;1920372;75;20425;-74
2021/08/07 07:05:55;;;;;;;;;;;17.20;99.90;;;;;;1924042;73;20176;-74
2021/08/07 07:08:22;;;;;;;;;;;17.30;99.90;;;;;;1919057;74;20401;-74
2021/08/07 07:10:48;;;;;;;;;;;17.40;99.90;;;;;;1924416;73;20163;-74
2021/08/07 07:13:15;;;;;;;;;;;17.30;99.90;;;;;;1924350;73;20171;-74
2021/08/07 07:15:42;;;;;;;;;;;17.30;99.90;;;;;;1922755;73;20156;-74
2021/08/07 07:18:09;;;;;;;;;;;17.30;99.90;;;;;;1925942;73;20163;-73
2021/08/07 07:20:36;;;;;;;;;;;17.30;99.90;;;;;;1925898;74;20163;-74
2021/08/07 07:23:02;;;;;;;;;;;17.40;99.90;;;;;;1925192;73;20123;-73
2021/08/07 07:25:29;;;;;;;;;;;17.40;99.90;;;;;;1925276;73;20528;-73
2021/08/07 07:27:56;;;;;;;;;;;17.40;99.90;;;;;;1929340;73;20196;-74
2021/08/07 07:30:23;;;;;;;;;;;17.40;99.90;;;;;;1925061;73;20222;-74
2021/08/07 07:32:50;;;;;;;;;;;17.40;99.90;;;;;;1924808;73;20567;-73
2021/08/07 07:35:16;;;;;;;;;;;17.40;99.90;;;;;;1925282;73;20154;-73
2021/08/07 07:37:44;;;;;;;;;;;17.40;99.90;;;;;;1924900;73;20813;-73
2021/08/07 07:40:11;;;;;;;;;;;17.50;99.90;;;;;;1925041;73;20504;-73
2021/08/07 07:42:38;;;;;;;;;;;17.60;99.90;;;;;;1925146;73;20180;-73
2021/08/07 07:45:06;;;;;;;;;;;17.60;99.90;;;;;;1925152;73;20253;-73
2021/08/07 07:47:33;;;;;;;;;;;17.70;99.90;;;;;;1924754;73;20163;-73
2021/08/07 07:50:00;;;;;;;;;;;17.80;99.90;;;;;;1924115;73;20175;-73
2021/08/07 07:52:27;;;;;;;;;;;17.90;99.90;;;;;;1925107;73;20214;-73
2021/08/07 07:54:53;;;;;;;;;;;17.90;99.90;;;;;;1924981;73;20284;-73
2021/08/07 07:57:21;;;;;;;;;;;17.80;99.90;;;;;;1924997;73;20211;-73
2021/08/07 07:59:47;;;;;;;;;;;17.90;99.90;;;;;;1925032;73;20220;-74
2021/08/07 08:02:15;;;;;;;;;;;17.90;99.90;;;;;;1924929;73;20177;-74
2021/08/07 08:04:42;;;;;;;;;;;17.90;99.90;;;;;;1905144;73;20182;-74
2021/08/07 08:07:08;;;;;;;;;;;17.90;99.90;;;;;;1924393;73;20213;-76
2021/08/07 08:09:35;;;;;;;;;;;17.90;99.90;;;;;;1929220;73;20175;-76
2021/08/07 08:12:03;;;;;;;;;;;17.90;99.90;;;;;;1924977;73;20169;-76
2021/08/07 08:14:30;;;;;;;;;;;18.00;99.90;;;;;;1927563;73;20177;-76
2021/08/07 08:16:57;;;;;;;;;;;18.10;99.90;;;;;;1924485;73;20471;-73
2021/08/07 08:19:24;;;;;;;;;;;18.10;99.90;;;;;;1924622;73;20185;-73
2021/08/07 08:21:51;;;;;;;;;;;18.10;99.90;;;;;;1924855;73;20185;-73
2021/08/07 08:24:18;;;;;;;;;;;18.10;99.90;;;;;;1924275;73;20248;-73
2021/08/07 08:26:44;;;;;;;;;;;18.10;99.90;;;;;;1925294;73;20213;-72
2021/08/07 08:29:11;;;;;;;;;;;18.20;99.90;;;;;;1925147;73;20222;-72
2021/08/07 08:31:39;;;;;;;;;;;18.20;99.90;;;;;;1924605;73;20190;-72
2021/08/07 08:34:05;;;;;;;;;;;18.20;99.90;;;;;;1924003;73;20207;-72
2021/08/07 08:36:32;;;;;;;;;;;18.20;99.90;;;;;;1924272;73;20210;-72
2021/08/07 08:38:59;;;;;;;;;;;18.20;99.90;;;;;;1924675;73;20732;-72
2021/08/07 08:41:26;;;;;;;;;;;18.30;99.90;;;;;;1924974;73;20292;-72
2021/08/07 08:43:55;;;;;;;;;;;18.30;99.90;;;;;;1925352;73;20142;-73
2021/08/07 08:46:22;;;;;;;;;;;18.40;99.90;;;;;;1924425;73;20193;-73
2021/08/07 08:48:48;;;;;;;;;;;18.40;99.90;;;;;;1924804;73;20539;-73
2021/08/07 08:51:15;;;;;;;;;;;18.50;99.90;;;;;;1924348;73;20125;-72
2021/08/07 08:53:44;;;;;;;;;;;18.50;99.90;;;;;;1924860;73;20212;-72
2021/08/07 08:56:11;;;;;;;;;;;18.60;99.90;;;;;;1924424;73;20447;-72
2021/08/07 08:58:38;;;;;;;;;;;18.60;99.90;;;;;;1921537;73;20197;-73
2021/08/07 09:01:08;;;;;;;;;;;18.80;99.90;;;;;;1925175;73;20246;-72
2021/08/07 09:03:35;;;;;;;;;;;18.80;99.90;;;;;;1925157;73;20474;-72
2021/08/07 09:06:02;;;;;;;;;;;18.90;99.90;;;;;;1925289;73;20403;-72
2021/08/07 09:08:29;;;;;;;;;;;18.90;99.90;;;;;;1908799;74;20252;-73
2021/08/07 09:11:12;;;;;;;;;;;19.00;99.90;;;;;;1925080;73;20119;-73
2021/08/07 09:13:39;;;;;;;;;;;19.00;99.90;;;;;;1923475;74;20194;-73
2021/08/07 09:16:09;;;;;;;;;;;19.00;99.90;;;;;;1923778;73;21259;-73
2021/08/07 09:18:36;;;;;;;;;;;19.10;99.90;;;;;;1922176;73;20162;-74
2021/08/07 09:21:10;;;;;;;;;;;19.20;99.90;;;;;;1925362;73;20188;-74
2021/08/07 09:23:37;;;;;;;;;;;19.30;99.90;;;;;;1922971;73;20168;-73
2021/08/07 09:26:14;;;;;;;;;;;19.30;99.90;;;;;;1920543;73;20207;-74
2021/08/07 09:28:49;;;;;;;;;;;19.30;99.90;;;;;;1927370;73;20172;-73
2021/08/07 09:31:16;;;;;;;;;;;19.40;99.90;;;;;;1925330;73;20480;-73
2021/08/07 09:33:42;;;;;;;;;;;19.40;99.90;;;;;;1924277;73;20422;-74
2021/08/07 09:36:09;;;;;;;;;;;19.40;99.90;;;;;;1924608;73;20179;-73
2021/08/07 09:38:38;;;;;;;;;;;19.50;99.90;;;;;;1923646;73;20211;-74
2021/08/07 09:41:06;;;;;;;;;;;19.60;99.90;;;;;;1923462;73;20246;-73
2021/08/07 09:43:34;;;;;;;;;;;19.60;99.90;;;;;;1925967;73;20411;-74
2021/08/07 09:46:02;;;;;;;;;;;19.70;99.90;;;;;;1922483;73;20112;-74
2021/08/07 09:48:30;;;;;;;;;;;19.70;99.90;;;;;;1917983;74;20658;-75
2021/08/07 09:50:57;;;;;;;;;;;19.70;99.90;;;;;;1899645;73;20127;-74
2021/08/07 09:53:30;;;;;;;;;;;19.80;99.90;;;;;;1924644;73;20484;-74
2021/08/07 09:56:00;;;;;;;;;;;19.70;99.90;;;;;;1923807;73;20173;-73
2021/08/07 09:58:27;;;;;;;;;;;19.60;99.90;;;;;;1923241;73;20399;-72
2021/08/07 10:00:54;;;;;;;;;;;19.50;99.90;;;;;;1923621;73;20492;-72
2021/08/07 10:03:22;;;;;;;;;;;19.50;99.90;;;;;;1924279;73;20224;-72
2021/08/07 10:05:50;;;;;;;;;;;19.50;99.90;;;;;;1921021;73;20163;-75
2021/08/07 10:08:17;;;;;;;;;;;19.60;99.90;;;;;;1921322;73;20200;-74
2021/08/07 10:10:44;;;;;;;;;;;19.60;99.90;;;;;;1919797;73;20179;-73
2021/08/07 10:13:12;;;;;;;;;;;19.60;99.90;;;;;;1924538;73;20190;-73
2021/08/07 10:15:40;;;;;;;;;;;19.80;99.90;;;;;;1926088;73;20177;-74
2021/08/07 10:18:07;;;;;;;;;;;19.80;99.90;;;;;;1926037;73;20163;-74
2021/08/07 10:20:35;;;;;;;;;;;19.80;99.90;;;;;;1921255;73;20176;-74
2021/08/07 10:23:02;;;;;;;;;;;19.70;99.90;;;;;;1917410;73;20231;-75
2021/08/07 10:25:29;;;;;;;;;;;19.70;99.90;;;;;;1936581;73;20187;-75
2021/08/07 10:27:57;;;;;;;;;;;19.70;99.90;;;;;;1940009;73;20152;-73
2021/08/07 10:30:25;;;;;;;;;;;19.60;99.90;;;;;;1930459;73;20492;-73
2021/08/07 10:32:53;;;;;;;;;;;19.60;99.90;;;;;;1923980;73;20825;-75
2021/08/07 10:35:22;;;;;;;;;;;19.60;99.90;;;;;;1921324;73;20178;-75
2021/08/07 10:37:49;;;;;;;;;;;19.50;99.90;;;;;;1918013;73;20477;-74
2021/08/07 10:40:16;;;;;;;;;;;19.50;99.90;;;;;;1929665;73;20506;-73
2021/08/07 10:42:45;;;;;;;;;;;19.50;99.90;;;;;;1927702;73;20235;-74
2021/08/07 10:45:13;;;;;;;;;;;19.50;99.90;;;;;;1943699;73;20113;-74
2021/08/07 10:47:42;;;;;;;;;;;19.60;99.90;;;;;;1944712;73;20188;-74
2021/08/07 10:50:28;;;;;;;;;;;19.60;99.90;;;;;;1917474;73;20222;-74
2021/08/07 10:52:59;;;;;;;;;;;19.60;99.90;;;;;;1922119;73;20188;-73
2021/08/07 10:55:45;;;;;;;;;;;19.60;99.90;;;;;;1917443;74;20189;-75
2021/08/07 10:58:29;;;;;;;;;;;19.60;99.90;;;;;;1921178;74;20469;-78
2021/08/07 11:00:58;;;;;;;;;;;19.60;99.90;;;;;;1920450;73;20179;-71
2021/08/07 11:03:26;;;;;;;;;;;19.60;99.90;;;;;;1935238;72;20221;-73
2021/08/07 11:05:54;;;;;;;;;;;19.60;99.90;;;;;;1920631;73;20157;-73
2021/08/07 11:08:21;;;;;;;;;;;19.60;99.90;;;;;;1926779;74;20149;-74
2021/08/07 11:10:48;;;;;;;;;;;19.60;99.90;;;;;;1918841;74;20183;-73
2021/08/07 11:13:22;;;;;;;;;;;19.60;99.90;;;;;;1920752;74;20148;-76
2021/08/07 11:15:50;;;;;;;;;;;19.70;99.90;;;;;;1924379;73;20407;-74
2021/08/07 11:18:23;;;;;;;;;;;19.70;99.90;;;;;;1920973;73;20121;-75
2021/08/07 11:20:50;;;;;;;;;;;19.70;99.90;;;;;;1917254;73;20127;-78
2021/08/07 11:23:18;;;;;;;;;;;19.60;99.90;;;;;;1919483;73;20112;-76
2021/08/07 11:25:48;;;;;;;;;;;19.60;99.90;;;;;;1928650;73;20226;-76
2021/08/07 11:28:16;;;;;;;;;;;19.60;99.90;;;;;;1928161;73;20201;-74
2021/08/07 11:30:43;;;;;;;;;;;19.60;99.90;;;;;;1920038;74;20269;-76
2021/08/07 11:33:11;;;;;;;;;;;19.60;99.90;;;;;;1925313;74;20183;-76
2021/08/07 11:35:45;;;;;;;;;;;19.60;99.90;;;;;;1923318;73;20159;-76
2021/08/07 11:38:13;;;;;;;;;;;19.60;99.90;;;;;;1924422;74;20360;-76
2021/08/07 11:40:59;;;;;;;;;;;19.60;99.90;;;;;;1925543;74;20197;-76
2021/08/07 11:43:44;;;;;;;;;;;19.60;99.90;;;;;;1925422;74;20114;-77
2021/08/07 11:46:12;;;;;;;;;;;19.60;99.90;;;;;;1925886;73;20189;-76
2021/08/07 11:48:39;;;;;;;;;;;19.70;99.90;;;;;;1925808;74;20132;-76
2021/08/07 11:51:08;;;;;;;;;;;19.80;99.90;;;;;;1926052;73;20135;-76
2021/08/07 11:53:36;;;;;;;;;;;20.10;99.90;;;;;;1925663;74;20216;-76
2021/08/07 11:56:05;;;;;;;;;;;20.20;99.90;;;;;;1925775;74;20218;-77
2021/08/07 11:58:33;;;;;;;;;;;20.20;99.90;;;;;;1925431;74;20179;-76
2021/08/07 12:01:01;;;;;;;;;;;20.20;99.90;;;;;;1923919;73;20186;-77
2021/08/07 12:03:28;;;;;;;;;;;20.20;99.90;;;;;;1918986;74;20179;-77
2021/08/07 12:06:00;;;;;;;;;;;20.10;99.90;;;;;;1925611;74;20147;-77
2021/08/07 12:08:28;;;;;;;;;;;20.10;99.90;;;;;;1925560;74;20152;-77
2021/08/07 12:10:56;;;;;;;;;;;20.10;99.90;;;;;;1929261;73;20217;-77
2021/08/07 12:13:27;;;;;;;;;;;20.10;99.90;;;;;;1925418;74;20201;-77
2021/08/07 12:16:01;;;;;;;;;;;20.10;99.90;;;;;;1925449;74;20159;-77
2021/08/07 12:18:45;;;;;;;;;;;20.10;99.90;;;;;;1925351;74;20174;-76
2021/08/07 12:21:13;;;;;;;;;;;20.20;99.90;;;;;;1925506;74;20213;-76
2021/08/07 12:23:44;;;;;;;;;;;20.40;99.90;;;;;;1925527;74;20178;-76
2021/08/07 12:26:11;;;;;;;;;;;20.30;99.90;;;;;;1921965;73;20163;-76
2021/08/07 12:28:38;;;;;;;;;;;20.20;99.90;;;;;;1925336;74;20171;-76
2021/08/07 12:31:05;;;;;;;;;;;20.30;99.90;;;;;;1925558;73;20229;-76
2021/08/07 12:33:33;;;;;;;;;;;20.20;99.90;;;;;;1925530;74;20163;-76
2021/08/07 12:36:01;;;;;;;;;;;20.20;99.90;;;;;;1925346;74;20182;-76
2021/08/07 12:38:28;;;;;;;;;;;20.30;99.90;;;;;;1924145;74;20164;-76
2021/08/07 12:41:00;;;;;;;;;;;20.30;99.90;;;;;;1925406;74;20212;-76
2021/08/07 12:43:31;;;;;;;;;;;20.30;99.90;;;;;;1925278;74;20119;-76
2021/08/07 12:45:58;;;;;;;;;;;20.40;99.90;;;;;;1925350;74;20444;-76
2021/08/07 12:48:26;;;;;;;;;;;20.60;99.90;;;;;;1925317;73;20115;-76
2021/08/07 12:51:02;;;;;;;;;;;20.80;99.90;;;;;;1925582;73;20189;-76
2021/08/07 12:53:42;;;;;;;;;;;20.80;99.90;;;;;;1892472;76;20153;-76
2021/08/07 12:56:10;;;;;;;;;;;20.90;99.90;;;;;;1922738;74;20121;-76
2021/08/07 12:58:37;;;;;;;;;;;21.10;99.90;;;;;;1926051;73;20189;-76
2021/08/07 13:01:13;;;;;;;;;;;21.20;99.90;;;;;;1925883;74;20182;-76
2021/08/07 13:03:54;;;;;;;;;;;21.10;99.90;;;;;;1925771;73;20335;-76
2021/08/07 13:06:22;;;;;;;;;;;21.10;99.90;;;;;;1925904;74;20461;-76
2021/08/07 13:08:49;;;;;;;;;;;21.20;99.90;;;;;;1926153;74;20223;-76
2021/08/07 13:11:17;;;;;;;;;;;21.30;99.90;;;;;;1925795;74;20152;-76
2021/08/07 13:13:45;;;;;;;;;;;21.40;99.90;;;;;;1925809;74;20144;-76
2021/08/07 13:16:12;;;;;;;;;;;21.40;99.90;;;;;;1925902;74;20104;-76
2021/08/07 13:18:39;;;;;;;;;;;21.40;99.90;;;;;;1925788;74;20165;-76
2021/08/07 13:21:07;;;;;;;;;;;21.50;99.90;;;;;;1925569;73;20169;-76
2021/08/07 13:23:35;;;;;;;;;;;21.50;99.90;;;;;;1921118;73;20168;-76
2021/08/07 13:26:03;;;;;;;;;;;21.60;99.90;;;;;;1929518;73;20159;-76
2021/08/07 13:28:30;;;;;;;;;;;21.70;99.90;;;;;;1925416;74;20590;-76
2021/08/07 13:30:57;;;;;;;;;;;21.70;99.90;;;;;;1925458;74;20166;-76
2021/08/07 13:33:24;;;;;;;;;;;21.80;99.90;;;;;;1927913;74;20123;-75
2021/08/07 13:35:51;;;;;;;;;;;21.80;99.90;;;;;;1928976;74;20176;-75
2021/08/07 13:38:18;;;;;;;;;;;21.90;99.90;;;;;;1929283;73;20117;-75
2021/08/07 13:40:45;;;;;;;;;;;21.90;99.90;;;;;;1928998;74;20156;-75
2021/08/07 13:43:13;;;;;;;;;;;21.90;99.90;;;;;;1929045;73;20169;-75
2021/08/07 13:45:45;;;;;;;;;;;22.00;99.90;;;;;;1929049;74;20207;-76
2021/08/07 13:48:09;;;;;;;;;;;22.00;99.90;;;;;;1928500;74;20199;-75
2021/08/07 13:50:36;;;;;;;;;;;22.00;99.90;;;;;;1928389;74;20124;-76
2021/08/07 13:53:03;;;;;;;;;;;22.10;99.90;;;;;;1928444;74;20257;-76
2021/08/07 13:55:30;;;;;;;;;;;22.10;99.90;;;;;;1928363;73;20182;-76
2021/08/07 13:57:57;;;;;;;;;;;22.10;99.90;;;;;;1928447;74;20166;-76
2021/08/07 14:00:25;;;;;;;;;;;22.20;99.90;;;;;;1926543;73;20163;-75
2021/08/07 14:02:52;;;;;;;;;;;22.20;99.90;;;;;;1925431;74;20291;-75
2021/08/07 14:05:19;;;;;;;;;;;22.30;99.90;;;;;;1925368;74;20169;-76
2021/08/07 14:07:45;;;;;;;;;;;22.10;99.90;;;;;;1925554;74;20184;-75
2021/08/07 14:10:12;;;;;;;;;;;22.10;99.90;;;;;;1929539;73;20175;-76
2021/08/07 14:12:39;;;;;;;;;;;22.10;99.90;;;;;;1925323;74;20171;-76
2021/08/07 14:15:06;;;;;;;;;;;22.20;99.90;;;;;;1925647;74;20170;-76
2021/08/07 14:17:34;;;;;;;;;;;22.30;99.90;;;;;;1925461;74;20178;-76
2021/08/07 14:20:00;;;;;;;;;;;22.30;99.90;;;;;;1925483;74;20143;-76